createdAt,value
2022-10-17T00:04:28.255Z,4.40
2022-10-17T00:10:52.477Z,4.30
2022-10-17T00:17:17.085Z,4.00
2022-10-17T00:23:26.348Z,4.50
2022-10-17T00:29:52.561Z,4.60
2022-10-17T00:36:11.809Z,4.40
2022-10-17T00:42:37.051Z,4.20
2022-10-17T00:49:02.752Z,4.20
2022-10-17T00:55:28.622Z,4.40
2022-10-17T01:01:53.866Z,4.90
2022-10-17T01:08:10.130Z,4.00
2022-10-17T01:14:52.169Z,4.60
2022-10-17T01:21:37.330Z,4.40
2022-10-17T01:28:17.606Z,4.30
2022-10-17T01:34:37.917Z,4.20
2022-10-17T01:41:20.587Z,4.30
2022-10-17T01:47:44.837Z,4.60
2022-10-17T01:54:03.045Z,4.50
2022-10-17T02:00:27.354Z,4.00
2022-10-17T02:06:51.776Z,4.60
2022-10-17T02:13:34.008Z,4.20
2022-10-17T02:20:11.739Z,4.80
2022-10-17T02:26:40.230Z,4.80
2022-10-17T02:33:07.692Z,4.30
2022-10-17T02:39:30.347Z,4.90
2022-10-17T02:45:54.723Z,4.20
2022-10-17T02:52:28.568Z,4.60
2022-10-17T02:58:53.035Z,4.50
2022-10-17T03:05:10.622Z,4.40
2022-10-17T03:11:34.898Z,4.60
2022-10-17T03:17:59.299Z,5.00
2022-10-17T03:24:23.845Z,4.70
2022-10-17T03:30:48.204Z,5.00
2022-10-17T03:37:12.427Z,4.90
2022-10-17T03:43:29.293Z,4.90
2022-10-17T03:49:53.623Z,5.10
2022-10-17T03:56:17.572Z,5.20
2022-10-17T04:02:41.814Z,5.00
2022-10-17T04:09:06.144Z,5.00
2022-10-17T04:15:37.811Z,5.10
2022-10-17T04:22:05.058Z,4.70
2022-10-17T04:28:29.377Z,4.90
2022-10-17T04:34:53.712Z,4.50
2022-10-17T04:41:18.102Z,4.50
2022-10-17T04:47:42.436Z,4.90
2022-10-17T04:54:06.601Z,4.50
2022-10-17T05:00:30.939Z,4.30
2022-10-17T05:06:58.120Z,4.50
2022-10-17T05:13:10.975Z,4.10
2022-10-17T05:19:35.291Z,4.30
2022-10-17T05:25:59.512Z,4.70
2022-10-17T05:32:17.091Z,4.40
2022-10-17T05:38:41.445Z,4.50
2022-10-17T05:45:05.870Z,4.20
2022-10-17T05:51:30.164Z,4.50
2022-10-17T05:58:06.263Z,4.50
2022-10-17T06:10:39.821Z,4.20
2022-10-17T06:17:04.041Z,4.50
2022-10-17T06:23:28.222Z,4.60
2022-10-17T06:29:52.467Z,4.20
2022-10-17T06:36:10.955Z,4.20
2022-10-17T06:42:35.230Z,4.70
2022-10-17T06:48:59.425Z,5.30
2022-10-17T06:55:32.736Z,5.20
2022-10-17T07:02:15.600Z,5.10
2022-10-17T07:08:19.079Z,4.30
2022-10-17T07:14:43.315Z,4.80
2022-10-17T07:21:07.778Z,4.60
2022-10-17T07:27:32.074Z,4.20
2022-10-17T07:33:56.506Z,4.70
2022-10-17T07:40:20.814Z,4.40
2022-10-17T07:46:45.008Z,4.20
2022-10-17T07:53:12.187Z,4.60
2022-10-17T07:59:29.343Z,3.80
2022-10-17T08:05:53.554Z,4.30
2022-10-17T08:12:17.834Z,4.50
2022-10-17T08:18:41.997Z,4.60
2022-10-17T08:25:00.732Z,5.00
2022-10-17T08:31:17.598Z,4.50
2022-10-17T08:37:41.837Z,5.40
2022-10-17T08:44:36.144Z,7.10
2022-10-17T08:51:12.205Z,7.50
2022-10-17T08:57:35.065Z,7.30
2022-10-17T09:04:11.248Z,7.50
2022-10-17T09:10:44.470Z,8.20
2022-10-17T09:17:15.711Z,8.30
2022-10-17T09:23:42.451Z,9.30
2022-10-17T09:30:07.303Z,8.70
2022-10-17T09:36:31.559Z,8.20
2022-10-17T09:42:48.481Z,8.30
2022-10-17T09:49:17.220Z,8.70
2022-10-17T09:55:47.714Z,7.80
2022-10-17T10:02:18.482Z,7.90
2022-10-17T10:08:43.767Z,7.90
2022-10-17T10:15:16.654Z,7.80
2022-10-17T10:21:47.205Z,7.30
2022-10-17T10:28:14.209Z,7.90
2022-10-17T10:34:39.437Z,7.40
2022-10-17T10:41:06.450Z,7.80
2022-10-17T10:47:30.980Z,7.90
2022-10-17T10:53:53.676Z,7.70
2022-10-17T11:00:24.436Z,7.40
2022-10-17T11:06:54.522Z,7.60
2022-10-17T11:13:21.629Z,7.10
2022-10-17T11:20:01.431Z,7.20
2022-10-17T11:26:28.766Z,7.10
2022-10-17T11:32:46.877Z,7.00
2022-10-17T11:39:14.374Z,6.40
2022-10-17T11:45:27.454Z,7.40
2022-10-17T11:52:09.679Z,7.00
2022-10-17T11:58:39.622Z,7.00
2022-10-17T12:05:04.291Z,7.30
2022-10-17T12:11:45.798Z,6.90
2022-10-17T12:18:16.471Z,6.50
2022-10-17T12:24:40.812Z,6.80
2022-10-17T12:31:09.596Z,6.30
2022-10-17T12:37:33.822Z,7.90
2022-10-17T12:43:58.611Z,8.70
2022-10-17T12:50:25.686Z,9.00
2022-10-17T12:56:50.028Z,9.20
2022-10-17T13:03:23.961Z,9.40
2022-10-17T13:09:27.807Z,9.40
2022-10-17T13:15:53.265Z,11.50
2022-10-17T13:22:17.483Z,9.70
2022-10-17T13:28:44.786Z,9.70
2022-10-17T13:35:14.737Z,9.20
2022-10-17T13:41:41.780Z,9.70
2022-10-17T13:48:09.262Z,9.10
2022-10-17T13:54:36.640Z,9.40
2022-10-17T14:01:01.157Z,9.90
2022-10-17T14:07:34.215Z,9.70
2022-10-17T14:13:46.652Z,9.00
2022-10-17T14:20:48.178Z,9.00
2022-10-17T14:27:01.474Z,9.00
2022-10-17T14:33:26.081Z,8.60
2022-10-17T14:39:49.024Z,8.70
2022-10-17T14:46:13.272Z,8.30
2022-10-17T14:52:52.416Z,8.50
2022-10-17T14:59:30.076Z,8.50
2022-10-17T15:06:00.893Z,9.50
2022-10-17T15:12:25.763Z,9.50
2022-10-17T15:18:49.152Z,10.00
2022-10-17T15:25:13.131Z,11.50
2022-10-17T15:31:37.416Z,10.50
2022-10-17T15:38:02.718Z,10.30
2022-10-17T15:50:23.440Z,10.20
2022-10-17T15:56:47.947Z,11.00
2022-10-17T16:03:15.191Z,10.50
2022-10-17T16:09:32.146Z,11.00
2022-10-17T16:15:59.069Z,10.70
2022-10-17T16:22:23.276Z,10.60
2022-10-17T16:28:47.608Z,10.70
2022-10-17T16:35:11.860Z,9.90
2022-10-17T16:41:36.170Z,10.00
2022-10-17T16:48:01.833Z,9.60
2022-10-17T16:54:20.740Z,9.60
2022-10-17T17:00:45.059Z,11.70
2022-10-17T17:07:09.472Z,12.70
2022-10-17T17:13:35.788Z,10.80
2022-10-17T17:20:02.842Z,10.80
2022-10-17T17:26:27.130Z,11.30
2022-10-17T17:32:50.148Z,11.00
2022-10-17T17:39:14.357Z,10.20
2022-10-17T17:45:38.686Z,11.10
2022-10-17T17:58:31.871Z,9.90
2022-10-17T18:04:54.890Z,9.60
2022-10-17T18:11:21.249Z,10.30
2022-10-17T18:17:47.627Z,9.40
2022-10-17T18:24:11.902Z,9.70
2022-10-17T18:30:31.037Z,9.90
2022-10-17T18:36:58.804Z,8.90
2022-10-17T18:43:15.573Z,9.60
2022-10-17T18:49:35.126Z,8.90
2022-10-17T18:56:00.765Z,8.90
2022-10-17T19:02:28.041Z,9.80
2022-10-17T19:08:54.896Z,9.30
2022-10-17T19:15:21.336Z,9.60
2022-10-17T19:21:49.239Z,9.40
2022-10-17T19:28:13.478Z,8.60
2022-10-17T19:34:37.833Z,8.40
2022-10-17T19:41:02.108Z,9.30
2022-10-17T19:47:26.403Z,8.80
2022-10-17T19:53:42.958Z,10.80
2022-10-17T20:00:07.233Z,9.60
2022-10-17T20:06:32.767Z,10.20
2022-10-17T20:12:57.090Z,9.40
2022-10-17T20:19:21.434Z,9.20
2022-10-17T20:25:38.339Z,9.10
2022-10-17T20:32:02.726Z,9.00
2022-10-17T20:38:26.967Z,8.90
2022-10-17T20:44:51.274Z,8.30
2022-10-17T20:51:15.476Z,8.40
2022-10-17T20:57:23.294Z,8.90
2022-10-17T21:03:47.516Z,7.90
2022-10-17T21:10:34.552Z,8.20
2022-10-17T21:16:58.049Z,8.80
2022-10-17T21:23:24.099Z,9.00
2022-10-17T21:29:47.178Z,8.80
2022-10-17T21:36:11.499Z,7.80
2022-10-17T21:42:34.713Z,7.90
2022-10-17T21:48:58.893Z,8.20
2022-10-17T21:55:23.214Z,8.10
2022-10-17T22:01:50.651Z,8.20
2022-10-17T22:08:07.703Z,7.90
2022-10-17T22:14:37.626Z,8.20
2022-10-17T22:20:55.545Z,7.70
2022-10-17T22:27:19.498Z,7.60
2022-10-17T22:33:43.826Z,7.70
2022-10-17T22:40:08.200Z,7.80
2022-10-17T22:46:31.405Z,7.70
2022-10-17T22:52:48.347Z,7.50
2022-10-17T22:59:11.260Z,7.60
2022-10-17T23:05:29.014Z,7.50
2022-10-17T23:17:57.242Z,7.00
2022-10-17T23:24:21.546Z,7.40
2022-10-17T23:30:38.404Z,7.60
2022-10-17T23:37:02.711Z,7.30
2022-10-17T23:43:26.929Z,7.40
2022-10-17T23:49:51.398Z,8.00
2022-10-17T23:56:08.388Z,7.30
